sensor_id;sensor_type;location;lat;lon;timestamp;temperature;humidity
15959;DHT22;8078;47.822;9.402;2023-02-01T00:00:23;0.80;99.90
15959;DHT22;8078;47.822;9.402;2023-02-01T00:02:48;0.80;99.90
15959;DHT22;8078;47.822;9.402;2023-02-01T00:05:14;0.90;99.90
15959;DHT22;8078;47.822;9.402;2023-02-01T00:07:39;0.90;99.90
15959;DHT22;8078;47.822;9.402;2023-02-01T00:10:06;0.90;99.90
15959;DHT22;8078;47.822;9.402;2023-02-01T00:12:32;0.80;99.90
15959;DHT22;8078;47.822;9.402;2023-02-01T00:14:58;0.80;99.90
15959;DHT22;8078;47.822;9.402;2023-02-01T00:17:24;0.90;99.90
15959;DHT22;8078;47.822;9.402;2023-02-01T00:19:50;0.90;99.90
15959;DHT22;8078;47.822;9.402;2023-02-01T00:22:15;0.90;99.90
15959;DHT22;8078;47.822;9.402;2023-02-01T00:24:41;0.90;99.90
15959;DHT22;8078;47.822;9.402;2023-02-01T00:27:06;0.90;99.90
15959;DHT22;8078;47.822;9.402;2023-02-01T00:29:32;0.90;99.90
15959;DHT22;8078;47.822;9.402;2023-02-01T00:31:58;0.90;99.90
15959;DHT22;8078;47.822;9.402;2023-02-01T00:34:23;0.90;99.90
15959;DHT22;8078;47.822;9.402;2023-02-01T00:36:49;0.90;99.90
15959;DHT22;8078;47.822;9.402;2023-02-01T00:39:15;0.90;99.90
15959;DHT22;8078;47.822;9.402;2023-02-01T00:41:40;0.90;99.90
15959;DHT22;8078;47.822;9.402;2023-02-01T00:44:06;0.80;99.90
15959;DHT22;8078;47.822;9.402;2023-02-01T00:46:32;0.90;99.90
15959;DHT22;8078;47.822;9.402;2023-02-01T00:48:57;0.90;99.90
15959;DHT22;8078;47.822;9.402;2023-02-01T00:51:26;0.80;99.90
15959;DHT22;8078;47.822;9.402;2023-02-01T00:53:52;0.80;99.90
15959;DHT22;8078;47.822;9.402;2023-02-01T00:56:18;0.80;99.90
15959;DHT22;8078;47.822;9.402;2023-02-01T00:58:44;0.80;99.90
15959;DHT22;8078;47.822;9.402;2023-02-01T01:01:20;0.80;99.90
15959;DHT22;8078;47.822;9.402;2023-02-01T01:03:49;0.70;99.90
15959;DHT22;8078;47.822;9.402;2023-02-01T01:06:17;0.70;99.90
15959;DHT22;8078;47.822;9.402;2023-02-01T01:08:44;0.80;99.90
15959;DHT22;8078;47.822;9.402;2023-02-01T01:13:37;0.80;99.90
15959;DHT22;8078;47.822;9.402;2023-02-01T01:16:05;0.80;99.90
15959;DHT22;8078;47.822;9.402;2023-02-01T01:18:32;0.80;99.90
15959;DHT22;8078;47.822;9.402;2023-02-01T01:20:58;0.80;99.90
15959;DHT22;8078;47.822;9.402;2023-02-01T01:23:25;0.80;99.90
15959;DHT22;8078;47.822;9.402;2023-02-01T01:25:50;0.80;99.90
15959;DHT22;8078;47.822;9.402;2023-02-01T01:28:16;0.80;99.90
15959;DHT22;8078;47.822;9.402;2023-02-01T01:30:42;0.80;99.90
15959;DHT22;8078;47.822;9.402;2023-02-01T01:33:07;0.70;99.90
15959;DHT22;8078;47.822;9.402;2023-02-01T01:35:33;0.70;99.90
15959;DHT22;8078;47.822;9.402;2023-02-01T01:38:00;0.70;99.90
15959;DHT22;8078;47.822;9.402;2023-02-01T01:40:27;0.70;99.90
15959;DHT22;8078;47.822;9.402;2023-02-01T01:42:53;0.70;99.90
15959;DHT22;8078;47.822;9.402;2023-02-01T01:45:32;0.70;99.90
15959;DHT22;8078;47.822;9.402;2023-02-01T01:48:11;0.70;99.90
15959;DHT22;8078;47.822;9.402;2023-02-01T01:50:58;0.70;99.90
15959;DHT22;8078;47.822;9.402;2023-02-01T01:53:31;0.70;99.90
15959;DHT22;8078;47.822;9.402;2023-02-01T01:55:57;0.70;99.90
15959;DHT22;8078;47.822;9.402;2023-02-01T01:58:26;0.60;99.90
15959;DHT22;8078;47.822;9.402;2023-02-01T02:00:53;0.70;99.90
15959;DHT22;8078;47.822;9.402;2023-02-01T02:03:25;0.60;99.90
15959;DHT22;8078;47.822;9.402;2023-02-01T02:05:54;0.60;99.90
15959;DHT22;8078;47.822;9.402;2023-02-01T02:08:21;0.70;99.90
15959;DHT22;8078;47.822;9.402;2023-02-01T02:10:48;0.60;99.90
15959;DHT22;8078;47.822;9.402;2023-02-01T02:13:48;0.60;99.90
15959;DHT22;8078;47.822;9.402;2023-02-01T02:16:31;0.60;99.90
15959;DHT22;8078;47.822;9.402;2023-02-01T02:22:20;0.60;99.90
15959;DHT22;8078;47.822;9.402;2023-02-01T02:31:25;0.60;99.90
15959;DHT22;8078;47.822;9.402;2023-02-01T02:34:02;0.60;99.90
15959;DHT22;8078;47.822;9.402;2023-02-01T02:39:27;0.60;99.90
15959;DHT22;8078;47.822;9.402;2023-02-01T02:42:16;0.60;99.90
15959;DHT22;8078;47.822;9.402;2023-02-01T02:45:09;0.50;99.90
15959;DHT22;8078;47.822;9.402;2023-02-01T02:48:08;0.50;99.90
15959;DHT22;8078;47.822;9.402;2023-02-01T02:50:37;0.50;99.90
15959;DHT22;8078;47.822;9.402;2023-02-01T02:56:23;0.40;99.90
15959;DHT22;8078;47.822;9.402;2023-02-01T02:59:09;0.50;99.90
15959;DHT22;8078;47.822;9.402;2023-02-01T03:01:55;0.50;99.90
15959;DHT22;8078;47.822;9.402;2023-02-01T03:04:39;0.50;99.90
15959;DHT22;8078;47.822;9.402;2023-02-01T03:07:42;0.40;99.90
15959;DHT22;8078;47.822;9.402;2023-02-01T03:09:58;0.40;99.90
15959;DHT22;8078;47.822;9.402;2023-02-01T03:12:29;0.40;99.90
15959;DHT22;8078;47.822;9.402;2023-02-01T03:15:16;0.50;99.90
15959;DHT22;8078;47.822;9.402;2023-02-01T03:17:42;0.40;99.90
15959;DHT22;8078;47.822;9.402;2023-02-01T03:20:10;0.40;99.90
15959;DHT22;8078;47.822;9.402;2023-02-01T03:22:39;0.40;99.90
15959;DHT22;8078;47.822;9.402;2023-02-01T03:25:12;0.40;99.90
15959;DHT22;8078;47.822;9.402;2023-02-01T03:27:49;0.40;99.90
15959;DHT22;8078;47.822;9.402;2023-02-01T03:30:20;0.40;99.90
15959;DHT22;8078;47.822;9.402;2023-02-01T03:32:49;0.40;99.90
15959;DHT22;8078;47.822;9.402;2023-02-01T03:38:23;0.40;99.90
15959;DHT22;8078;47.822;9.402;2023-02-01T03:44:11;0.40;99.90
15959;DHT22;8078;47.822;9.402;2023-02-01T03:50:02;0.40;99.90
15959;DHT22;8078;47.822;9.402;2023-02-01T03:52:32;0.40;99.90
15959;DHT22;8078;47.822;9.402;2023-02-01T03:54:59;0.40;99.90
15959;DHT22;8078;47.822;9.402;2023-02-01T03:57:38;0.40;99.90
15959;DHT22;8078;47.822;9.402;2023-02-01T04:02:30;0.40;99.90
15959;DHT22;8078;47.822;9.402;2023-02-01T04:04:56;0.40;99.90
15959;DHT22;8078;47.822;9.402;2023-02-01T04:07:22;0.40;99.90
15959;DHT22;8078;47.822;9.402;2023-02-01T04:09:47;0.40;99.90
15959;DHT22;8078;47.822;9.402;2023-02-01T04:12:13;0.40;99.90
15959;DHT22;8078;47.822;9.402;2023-02-01T04:14:38;0.40;99.90
15959;DHT22;8078;47.822;9.402;2023-02-01T04:17:04;0.40;99.90
15959;DHT22;8078;47.822;9.402;2023-02-01T04:19:29;0.40;99.90
15959;DHT22;8078;47.822;9.402;2023-02-01T04:21:55;0.30;99.90
15959;DHT22;8078;47.822;9.402;2023-02-01T04:24:20;0.30;99.90
15959;DHT22;8078;47.822;9.402;2023-02-01T04:26:46;0.30;99.90
15959;DHT22;8078;47.822;9.402;2023-02-01T04:29:11;0.30;99.90
15959;DHT22;8078;47.822;9.402;2023-02-01T04:31:37;0.30;99.90
15959;DHT22;8078;47.822;9.402;2023-02-01T04:34:02;0.30;99.90
15959;DHT22;8078;47.822;9.402;2023-02-01T04:36:28;0.40;99.90
15959;DHT22;8078;47.822;9.402;2023-02-01T04:38:53;0.40;99.90
15959;DHT22;8078;47.822;9.402;2023-02-01T04:41:19;0.40;99.90
15959;DHT22;8078;47.822;9.402;2023-02-01T04:43:46;0.30;99.90
15959;DHT22;8078;47.822;9.402;2023-02-01T04:46:12;0.30;99.90
15959;DHT22;8078;47.822;9.402;2023-02-01T04:48:38;0.30;99.90
15959;DHT22;8078;47.822;9.402;2023-02-01T04:51:03;0.30;99.90
15959;DHT22;8078;47.822;9.402;2023-02-01T04:53:29;0.30;99.90
15959;DHT22;8078;47.822;9.402;2023-02-01T04:55:55;0.30;99.90
15959;DHT22;8078;47.822;9.402;2023-02-01T04:58:21;0.30;99.90
15959;DHT22;8078;47.822;9.402;2023-02-01T05:00:46;0.30;99.90
15959;DHT22;8078;47.822;9.402;2023-02-01T05:03:12;0.30;99.90
15959;DHT22;8078;47.822;9.402;2023-02-01T05:05:37;0.30;99.90
15959;DHT22;8078;47.822;9.402;2023-02-01T05:08:03;0.30;99.90
15959;DHT22;8078;47.822;9.402;2023-02-01T05:10:29;0.30;99.90
15959;DHT22;8078;47.822;9.402;2023-02-01T05:12:54;0.30;99.90
15959;DHT22;8078;47.822;9.402;2023-02-01T05:15:38;0.30;99.90
15959;DHT22;8078;47.822;9.402;2023-02-01T05:18:04;0.30;99.90
15959;DHT22;8078;47.822;9.402;2023-02-01T05:20:30;0.30;99.90
15959;DHT22;8078;47.822;9.402;2023-02-01T05:22:55;0.30;99.90
15959;DHT22;8078;47.822;9.402;2023-02-01T05:25:21;0.30;99.90
15959;DHT22;8078;47.822;9.402;2023-02-01T05:27:46;0.30;99.90
15959;DHT22;8078;47.822;9.402;2023-02-01T05:30:12;0.30;99.90
15959;DHT22;8078;47.822;9.402;2023-02-01T05:32:38;0.30;99.90
15959;DHT22;8078;47.822;9.402;2023-02-01T05:35:03;0.30;99.90
15959;DHT22;8078;47.822;9.402;2023-02-01T05:37:29;0.20;99.90
15959;DHT22;8078;47.822;9.402;2023-02-01T05:39:55;0.30;99.90
15959;DHT22;8078;47.822;9.402;2023-02-01T05:42:20;0.20;99.90
15959;DHT22;8078;47.822;9.402;2023-02-01T05:44:46;0.30;99.90
15959;DHT22;8078;47.822;9.402;2023-02-01T05:47:11;0.30;99.90
15959;DHT22;8078;47.822;9.402;2023-02-01T05:49:37;0.20;99.90
15959;DHT22;8078;47.822;9.402;2023-02-01T05:52:03;0.30;99.90
15959;DHT22;8078;47.822;9.402;2023-02-01T05:54:29;0.20;99.90
15959;DHT22;8078;47.822;9.402;2023-02-01T05:56:54;0.20;99.90
15959;DHT22;8078;47.822;9.402;2023-02-01T05:59:20;0.20;99.90
15959;DHT22;8078;47.822;9.402;2023-02-01T06:01:45;0.20;99.90
15959;DHT22;8078;47.822;9.402;2023-02-01T06:04:11;0.10;99.90
15959;DHT22;8078;47.822;9.402;2023-02-01T06:06:37;0.10;99.90
15959;DHT22;8078;47.822;9.402;2023-02-01T06:09:03;0.10;99.90
15959;DHT22;8078;47.822;9.402;2023-02-01T06:11:28;0.00;99.90
15959;DHT22;8078;47.822;9.402;2023-02-01T06:13:54;0.00;99.90
15959;DHT22;8078;47.822;9.402;2023-02-01T06:16:21;0.00;99.90
15959;DHT22;8078;47.822;9.402;2023-02-01T06:18:46;0.00;99.90
15959;DHT22;8078;47.822;9.402;2023-02-01T06:21:12;0.00;99.90
15959;DHT22;8078;47.822;9.402;2023-02-01T06:23:39;0.00;99.90
15959;DHT22;8078;47.822;9.402;2023-02-01T06:26:06;0.10;99.90
15959;DHT22;8078;47.822;9.402;2023-02-01T06:28:33;0.10;99.90
15959;DHT22;8078;47.822;9.402;2023-02-01T06:31:06;0.10;99.90
15959;DHT22;8078;47.822;9.402;2023-02-01T06:33:33;0.00;99.90
15959;DHT22;8078;47.822;9.402;2023-02-01T06:36:00;0.10;99.90
15959;DHT22;8078;47.822;9.402;2023-02-01T06:38:26;0.10;99.90
15959;DHT22;8078;47.822;9.402;2023-02-01T06:40:53;0.10;99.90
15959;DHT22;8078;47.822;9.402;2023-02-01T06:43:20;0.10;99.90
15959;DHT22;8078;47.822;9.402;2023-02-01T06:45:46;0.10;99.90
15959;DHT22;8078;47.822;9.402;2023-02-01T06:48:11;0.10;99.90
15959;DHT22;8078;47.822;9.402;2023-02-01T06:50:37;0.10;99.90
15959;DHT22;8078;47.822;9.402;2023-02-01T06:53:02;0.00;99.90
15959;DHT22;8078;47.822;9.402;2023-02-01T06:55:28;0.00;99.90
15959;DHT22;8078;47.822;9.402;2023-02-01T06:57:54;0.10;99.90
15959;DHT22;8078;47.822;9.402;2023-02-01T07:00:21;0.10;99.90
15959;DHT22;8078;47.822;9.402;2023-02-01T07:02:47;0.00;99.90
15959;DHT22;8078;47.822;9.402;2023-02-01T07:05:12;0.00;99.90
15959;DHT22;8078;47.822;9.402;2023-02-01T07:07:38;0.00;99.90
15959;DHT22;8078;47.822;9.402;2023-02-01T07:10:03;0.00;99.90
15959;DHT22;8078;47.822;9.402;2023-02-01T07:12:29;0.00;99.90
15959;DHT22;8078;47.822;9.402;2023-02-01T07:14:55;0.00;99.90
15959;DHT22;8078;47.822;9.402;2023-02-01T07:17:21;0.00;99.90
15959;DHT22;8078;47.822;9.402;2023-02-01T07:19:47;0.10;99.90
15959;DHT22;8078;47.822;9.402;2023-02-01T07:22:12;0.10;99.90
15959;DHT22;8078;47.822;9.402;2023-02-01T07:24:38;0.10;99.90
15959;DHT22;8078;47.822;9.402;2023-02-01T07:27:04;0.10;99.90
15959;DHT22;8078;47.822;9.402;2023-02-01T07:29:29;0.10;99.90
15959;DHT22;8078;47.822;9.402;2023-02-01T07:31:55;0.10;99.90
15959;DHT22;8078;47.822;9.402;2023-02-01T07:34:20;0.10;99.90
15959;DHT22;8078;47.822;9.402;2023-02-01T07:36:46;0.10;99.90
15959;DHT22;8078;47.822;9.402;2023-02-01T07:39:11;0.10;99.90
15959;DHT22;8078;47.822;9.402;2023-02-01T07:41:37;0.10;99.90
15959;DHT22;8078;47.822;9.402;2023-02-01T07:44:03;0.10;99.90
15959;DHT22;8078;47.822;9.402;2023-02-01T07:46:28;0.10;99.90
15959;DHT22;8078;47.822;9.402;2023-02-01T07:48:54;0.10;99.90
15959;DHT22;8078;47.822;9.402;2023-02-01T07:51:20;0.10;99.90
15959;DHT22;8078;47.822;9.402;2023-02-01T07:53:45;0.10;99.90
15959;DHT22;8078;47.822;9.402;2023-02-01T07:56:16;0.10;99.90
15959;DHT22;8078;47.822;9.402;2023-02-01T07:58:42;0.10;99.90
15959;DHT22;8078;47.822;9.402;2023-02-01T08:01:19;0.10;99.90
15959;DHT22;8078;47.822;9.402;2023-02-01T08:03:47;0.10;99.90
15959;DHT22;8078;47.822;9.402;2023-02-01T08:06:13;0.10;99.90
15959;DHT22;8078;47.822;9.402;2023-02-01T08:08:39;0.10;99.90
15959;DHT22;8078;47.822;9.402;2023-02-01T08:11:06;0.10;99.90
15959;DHT22;8078;47.822;9.402;2023-02-01T08:13:33;0.10;99.90
15959;DHT22;8078;47.822;9.402;2023-02-01T08:16:01;0.10;99.90
15959;DHT22;8078;47.822;9.402;2023-02-01T08:18:26;0.10;99.90
15959;DHT22;8078;47.822;9.402;2023-02-01T08:20:52;0.10;99.90
15959;DHT22;8078;47.822;9.402;2023-02-01T08:23:18;0.10;99.90
15959;DHT22;8078;47.822;9.402;2023-02-01T08:25:44;0.10;99.90
15959;DHT22;8078;47.822;9.402;2023-02-01T08:28:10;0.10;99.90
15959;DHT22;8078;47.822;9.402;2023-02-01T08:30:39;0.10;99.90
15959;DHT22;8078;47.822;9.402;2023-02-01T08:33:05;0.10;99.90
15959;DHT22;8078;47.822;9.402;2023-02-01T08:35:34;0.10;99.90
15959;DHT22;8078;47.822;9.402;2023-02-01T08:37:59;0.10;99.90
15959;DHT22;8078;47.822;9.402;2023-02-01T08:40:25;0.10;99.90
15959;DHT22;8078;47.822;9.402;2023-02-01T08:42:50;0.10;99.90
15959;DHT22;8078;47.822;9.402;2023-02-01T08:45:17;0.10;99.90
15959;DHT22;8078;47.822;9.402;2023-02-01T08:47:44;0.10;99.90
15959;DHT22;8078;47.822;9.402;2023-02-01T08:50:10;0.20;99.90
15959;DHT22;8078;47.822;9.402;2023-02-01T08:52:36;0.10;99.90
15959;DHT22;8078;47.822;9.402;2023-02-01T08:55:01;0.20;99.90
15959;DHT22;8078;47.822;9.402;2023-02-01T08:57:27;0.20;99.90
15959;DHT22;8078;47.822;9.402;2023-02-01T08:59:52;0.20;99.90
15959;DHT22;8078;47.822;9.402;2023-02-01T09:02:18;0.20;99.90
15959;DHT22;8078;47.822;9.402;2023-02-01T09:04:44;0.20;99.90
15959;DHT22;8078;47.822;9.402;2023-02-01T09:07:10;0.20;99.90
15959;DHT22;8078;47.822;9.402;2023-02-01T09:09:37;0.20;99.90
15959;DHT22;8078;47.822;9.402;2023-02-01T09:12:03;0.20;99.90
15959;DHT22;8078;47.822;9.402;2023-02-01T09:14:29;0.20;99.90
15959;DHT22;8078;47.822;9.402;2023-02-01T09:16:55;0.20;99.90
15959;DHT22;8078;47.822;9.402;2023-02-01T09:19:21;0.30;99.90
15959;DHT22;8078;47.822;9.402;2023-02-01T09:21:46;0.20;99.90
15959;DHT22;8078;47.822;9.402;2023-02-01T09:24:12;0.20;99.90
15959;DHT22;8078;47.822;9.402;2023-02-01T09:26:38;0.20;99.90
15959;DHT22;8078;47.822;9.402;2023-02-01T09:29:04;0.20;99.90
15959;DHT22;8078;47.822;9.402;2023-02-01T09:31:35;0.20;99.90
15959;DHT22;8078;47.822;9.402;2023-02-01T09:34:01;0.30;99.90
15959;DHT22;8078;47.822;9.402;2023-02-01T09:36:26;0.30;99.90
15959;DHT22;8078;47.822;9.402;2023-02-01T09:38:52;0.30;99.90
15959;DHT22;8078;47.822;9.402;2023-02-01T09:41:42;0.30;99.90
15959;DHT22;8078;47.822;9.402;2023-02-01T09:47:14;0.30;99.90
15959;DHT22;8078;47.822;9.402;2023-02-01T09:50:02;0.30;99.90
15959;DHT22;8078;47.822;9.402;2023-02-01T09:52:38;0.40;99.90
15959;DHT22;8078;47.822;9.402;2023-02-01T09:55:19;0.40;99.90
15959;DHT22;8078;47.822;9.402;2023-02-01T09:58:09;0.40;99.90
15959;DHT22;8078;47.822;9.402;2023-02-01T10:00:38;0.40;99.90
15959;DHT22;8078;47.822;9.402;2023-02-01T10:03:05;0.40;99.90
15959;DHT22;8078;47.822;9.402;2023-02-01T10:17:44;0.40;99.90
15959;DHT22;8078;47.822;9.402;2023-02-01T10:20:11;0.50;99.90
15959;DHT22;8078;47.822;9.402;2023-02-01T10:22:44;0.50;99.90
15959;DHT22;8078;47.822;9.402;2023-02-01T10:25:26;0.50;99.90
15959;DHT22;8078;47.822;9.402;2023-02-01T10:27:54;0.60;99.90
15959;DHT22;8078;47.822;9.402;2023-02-01T10:30:25;0.60;99.90
15959;DHT22;8078;47.822;9.402;2023-02-01T10:32:56;0.60;99.90
15959;DHT22;8078;47.822;9.402;2023-02-01T10:35:30;0.60;99.90
15959;DHT22;8078;47.822;9.402;2023-02-01T10:38:00;0.60;99.90
15959;DHT22;8078;47.822;9.402;2023-02-01T10:40:29;0.70;99.90
15959;DHT22;8078;47.822;9.402;2023-02-01T10:42:58;0.70;99.90
15959;DHT22;8078;47.822;9.402;2023-02-01T10:45:28;0.80;99.90
15959;DHT22;8078;47.822;9.402;2023-02-01T10:47:55;0.80;99.90
15959;DHT22;8078;47.822;9.402;2023-02-01T10:50:57;0.90;99.90
15959;DHT22;8078;47.822;9.402;2023-02-01T10:53:33;0.90;99.90
15959;DHT22;8078;47.822;9.402;2023-02-01T10:56:09;1.00;99.90
15959;DHT22;8078;47.822;9.402;2023-02-01T10:58:36;1.00;99.90
15959;DHT22;8078;47.822;9.402;2023-02-01T11:01:04;1.00;99.90
15959;DHT22;8078;47.822;9.402;2023-02-01T11:05:59;1.00;99.90
15959;DHT22;8078;47.822;9.402;2023-02-01T11:08:26;1.00;99.90
15959;DHT22;8078;47.822;9.402;2023-02-01T11:11:09;1.10;99.90
15959;DHT22;8078;47.822;9.402;2023-02-01T11:13:39;1.00;99.90
15959;DHT22;8078;47.822;9.402;2023-02-01T11:16:06;1.00;99.90
15959;DHT22;8078;47.822;9.402;2023-02-01T11:18:36;1.00;99.90
15959;DHT22;8078;47.822;9.402;2023-02-01T11:21:04;1.00;99.90
15959;DHT22;8078;47.822;9.402;2023-02-01T11:23:31;1.20;99.90
15959;DHT22;8078;47.822;9.402;2023-02-01T11:26:25;1.10;99.90
15959;DHT22;8078;47.822;9.402;2023-02-01T11:29:03;1.10;99.90
15959;DHT22;8078;47.822;9.402;2023-02-01T11:31:29;1.10;99.90
15959;DHT22;8078;47.822;9.402;2023-02-01T11:33:59;1.10;99.90
15959;DHT22;8078;47.822;9.402;2023-02-01T11:36:28;1.20;99.90
15959;DHT22;8078;47.822;9.402;2023-02-01T11:39:10;1.30;99.90
15959;DHT22;8078;47.822;9.402;2023-02-01T11:44:33;1.40;99.90
15959;DHT22;8078;47.822;9.402;2023-02-01T11:49:43;1.40;99.90
15959;DHT22;8078;47.822;9.402;2023-02-01T12:00:10;1.70;99.90
15959;DHT22;8078;47.822;9.402;2023-02-01T12:14:06;1.90;99.90
15959;DHT22;8078;47.822;9.402;2023-02-01T12:19:32;1.90;99.90
15959;DHT22;8078;47.822;9.402;2023-02-01T12:22:29;1.90;99.90
15959;DHT22;8078;47.822;9.402;2023-02-01T12:39:04;1.90;99.90
15959;DHT22;8078;47.822;9.402;2023-02-01T12:41:50;1.90;99.90
15959;DHT22;8078;47.822;9.402;2023-02-01T12:52:26;2.00;99.90
15959;DHT22;8078;47.822;9.402;2023-02-01T12:55:05;2.00;99.90
15959;DHT22;8078;47.822;9.402;2023-02-01T12:57:40;2.00;99.90
15959;DHT22;8078;47.822;9.402;2023-02-01T13:00:19;2.00;99.90
15959;DHT22;8078;47.822;9.402;2023-02-01T13:03:11;2.00;99.90
15959;DHT22;8078;47.822;9.402;2023-02-01T13:06:12;2.10;99.90
15959;DHT22;8078;47.822;9.402;2023-02-01T13:08:48;2.10;99.90
15959;DHT22;8078;47.822;9.402;2023-02-01T13:11:34;2.10;99.90
15959;DHT22;8078;47.822;9.402;2023-02-01T13:16:59;2.10;99.90
15959;DHT22;8078;47.822;9.402;2023-02-01T13:19:49;2.10;99.90
15959;DHT22;8078;47.822;9.402;2023-02-01T13:22:20;2.10;99.90
15959;DHT22;8078;47.822;9.402;2023-02-01T13:25:02;2.10;99.90
15959;DHT22;8078;47.822;9.402;2023-02-01T13:27:29;2.10;99.90
15959;DHT22;8078;47.822;9.402;2023-02-01T13:30:04;2.10;99.90
15959;DHT22;8078;47.822;9.402;2023-02-01T13:35:33;2.10;99.90
15959;DHT22;8078;47.822;9.402;2023-02-01T13:41:29;2.10;99.90
15959;DHT22;8078;47.822;9.402;2023-02-01T13:44:14;2.10;99.90
15959;DHT22;8078;47.822;9.402;2023-02-01T13:46:43;2.10;99.90
15959;DHT22;8078;47.822;9.402;2023-02-01T13:49:23;2.10;99.90
15959;DHT22;8078;47.822;9.402;2023-02-01T13:51:53;2.10;99.90
15959;DHT22;8078;47.822;9.402;2023-02-01T13:54:37;2.00;99.90
15959;DHT22;8078;47.822;9.402;2023-02-01T13:57:05;2.00;99.90
15959;DHT22;8078;47.822;9.402;2023-02-01T14:13:33;2.20;99.90
15959;DHT22;8078;47.822;9.402;2023-02-01T14:23:55;2.20;99.90
15959;DHT22;8078;47.822;9.402;2023-02-01T14:34:48;2.10;99.90
15959;DHT22;8078;47.822;9.402;2023-02-01T14:45:45;2.00;99.90
15959;DHT22;8078;47.822;9.402;2023-02-01T14:47:41;2.00;99.90
15959;DHT22;8078;47.822;9.402;2023-02-01T14:52:40;2.00;99.90
15959;DHT22;8078;47.822;9.402;2023-02-01T14:55:24;2.00;99.90
15959;DHT22;8078;47.822;9.402;2023-02-01T14:57:53;2.00;99.90
15959;DHT22;8078;47.822;9.402;2023-02-01T15:00:24;2.00;99.90
15959;DHT22;8078;47.822;9.402;2023-02-01T15:02:51;2.00;99.90
15959;DHT22;8078;47.822;9.402;2023-02-01T15:05:27;2.00;99.90
15959;DHT22;8078;47.822;9.402;2023-02-01T15:07:57;2.00;99.90
15959;DHT22;8078;47.822;9.402;2023-02-01T15:10:23;2.00;99.90
15959;DHT22;8078;47.822;9.402;2023-02-01T15:12:49;2.00;99.90
15959;DHT22;8078;47.822;9.402;2023-02-01T15:15:21;2.00;99.90
15959;DHT22;8078;47.822;9.402;2023-02-01T15:17:58;2.10;99.90
15959;DHT22;8078;47.822;9.402;2023-02-01T15:20:32;2.10;99.90
15959;DHT22;8078;47.822;9.402;2023-02-01T15:23:04;2.00;99.90
15959;DHT22;8078;47.822;9.402;2023-02-01T15:25:36;2.00;99.90
15959;DHT22;8078;47.822;9.402;2023-02-01T15:28:04;2.00;99.90
15959;DHT22;8078;47.822;9.402;2023-02-01T15:30:33;2.00;99.90
15959;DHT22;8078;47.822;9.402;2023-02-01T15:33:06;2.00;99.90
15959;DHT22;8078;47.822;9.402;2023-02-01T15:35:44;2.00;99.90
15959;DHT22;8078;47.822;9.402;2023-02-01T15:43:36;2.00;99.90
15959;DHT22;8078;47.822;9.402;2023-02-01T15:46:06;1.90;99.90
15959;DHT22;8078;47.822;9.402;2023-02-01T15:48:47;1.90;99.90
15959;DHT22;8078;47.822;9.402;2023-02-01T15:51:22;1.90;99.90
15959;DHT22;8078;47.822;9.402;2023-02-01T15:53:52;1.90;99.90
15959;DHT22;8078;47.822;9.402;2023-02-01T15:56:27;1.90;99.90
15959;DHT22;8078;47.822;9.402;2023-02-01T15:58:57;1.90;99.90
15959;DHT22;8078;47.822;9.402;2023-02-01T16:01:23;1.90;99.90
15959;DHT22;8078;47.822;9.402;2023-02-01T16:03:49;1.90;99.90
15959;DHT22;8078;47.822;9.402;2023-02-01T16:06:29;1.90;99.90
15959;DHT22;8078;47.822;9.402;2023-02-01T16:09:11;1.90;99.90
15959;DHT22;8078;47.822;9.402;2023-02-01T16:11:54;1.90;99.90
15959;DHT22;8078;47.822;9.402;2023-02-01T16:14:20;1.90;99.90
15959;DHT22;8078;47.822;9.402;2023-02-01T16:16:46;1.80;99.90
15959;DHT22;8078;47.822;9.402;2023-02-01T16:19:12;1.80;99.90
15959;DHT22;8078;47.822;9.402;2023-02-01T16:21:37;1.80;99.90
15959;DHT22;8078;47.822;9.402;2023-02-01T16:24:03;1.80;99.90
15959;DHT22;8078;47.822;9.402;2023-02-01T16:26:33;1.80;99.90
15959;DHT22;8078;47.822;9.402;2023-02-01T16:28:59;1.80;99.90
15959;DHT22;8078;47.822;9.402;2023-02-01T16:31:29;1.80;99.90
15959;DHT22;8078;47.822;9.402;2023-02-01T16:33:55;1.90;99.90
15959;DHT22;8078;47.822;9.402;2023-02-01T16:36:21;1.80;99.90
15959;DHT22;8078;47.822;9.402;2023-02-01T16:38:47;1.80;99.90
15959;DHT22;8078;47.822;9.402;2023-02-01T16:41:16;1.80;99.90
15959;DHT22;8078;47.822;9.402;2023-02-01T16:43:42;1.80;99.90
15959;DHT22;8078;47.822;9.402;2023-02-01T16:46:19;1.80;99.90
15959;DHT22;8078;47.822;9.402;2023-02-01T16:48:55;1.80;99.90
15959;DHT22;8078;47.822;9.402;2023-02-01T16:51:22;1.80;99.90
15959;DHT22;8078;47.822;9.402;2023-02-01T16:53:48;1.80;99.90
15959;DHT22;8078;47.822;9.402;2023-02-01T16:56:19;1.80;99.90
15959;DHT22;8078;47.822;9.402;2023-02-01T16:58:45;1.80;99.90
15959;DHT22;8078;47.822;9.402;2023-02-01T17:01:13;1.80;99.90
15959;DHT22;8078;47.822;9.402;2023-02-01T17:03:39;1.70;99.90
15959;DHT22;8078;47.822;9.402;2023-02-01T17:06:05;1.70;99.90
15959;DHT22;8078;47.822;9.402;2023-02-01T17:08:34;1.70;99.90
15959;DHT22;8078;47.822;9.402;2023-02-01T17:11:01;1.70;99.90
15959;DHT22;8078;47.822;9.402;2023-02-01T17:13:28;1.70;99.90
15959;DHT22;8078;47.822;9.402;2023-02-01T17:16:00;1.80;99.90
15959;DHT22;8078;47.822;9.402;2023-02-01T17:18:28;1.70;99.90
15959;DHT22;8078;47.822;9.402;2023-02-01T17:20:58;1.70;99.90
15959;DHT22;8078;47.822;9.402;2023-02-01T17:23:24;1.70;99.90
15959;DHT22;8078;47.822;9.402;2023-02-01T17:25:50;1.70;99.90
15959;DHT22;8078;47.822;9.402;2023-02-01T17:28:16;1.70;99.90
15959;DHT22;8078;47.822;9.402;2023-02-01T17:30:42;1.70;99.90
15959;DHT22;8078;47.822;9.402;2023-02-01T17:33:23;1.70;99.90
15959;DHT22;8078;47.822;9.402;2023-02-01T17:35:49;1.70;99.90
15959;DHT22;8078;47.822;9.402;2023-02-01T17:38:16;1.70;99.90
15959;DHT22;8078;47.822;9.402;2023-02-01T17:40:41;1.70;99.90
15959;DHT22;8078;47.822;9.402;2023-02-01T17:43:20;1.70;99.90
15959;DHT22;8078;47.822;9.402;2023-02-01T17:48:25;1.70;99.90
15959;DHT22;8078;47.822;9.402;2023-02-01T17:50:51;1.70;99.90
15959;DHT22;8078;47.822;9.402;2023-02-01T17:53:26;1.70;99.90
15959;DHT22;8078;47.822;9.402;2023-02-01T17:55:52;1.70;99.90
15959;DHT22;8078;47.822;9.402;2023-02-01T17:58:19;1.70;99.90
15959;DHT22;8078;47.822;9.402;2023-02-01T18:00:47;1.70;99.90
15959;DHT22;8078;47.822;9.402;2023-02-01T18:03:25;1.70;99.90
15959;DHT22;8078;47.822;9.402;2023-02-01T18:05:53;1.70;99.90
15959;DHT22;8078;47.822;9.402;2023-02-01T18:08:24;1.70;99.90
15959;DHT22;8078;47.822;9.402;2023-02-01T18:10:59;1.70;99.90
15959;DHT22;8078;47.822;9.402;2023-02-01T18:13:29;1.70;99.90
15959;DHT22;8078;47.822;9.402;2023-02-01T18:15:56;1.70;99.90
15959;DHT22;8078;47.822;9.402;2023-02-01T18:18:24;1.70;99.90
15959;DHT22;8078;47.822;9.402;2023-02-01T18:20:50;1.70;99.90
15959;DHT22;8078;47.822;9.402;2023-02-01T18:23:18;1.70;99.90
15959;DHT22;8078;47.822;9.402;2023-02-01T18:25:44;1.70;99.90
15959;DHT22;8078;47.822;9.402;2023-02-01T18:28:14;1.70;99.90
15959;DHT22;8078;47.822;9.402;2023-02-01T18:30:42;1.70;99.90
15959;DHT22;8078;47.822;9.402;2023-02-01T18:33:13;1.60;99.90
15959;DHT22;8078;47.822;9.402;2023-02-01T18:35:39;1.70;99.90
15959;DHT22;8078;47.822;9.402;2023-02-01T18:38:05;1.70;99.90
15959;DHT22;8078;47.822;9.402;2023-02-01T18:40:32;1.70;99.90
15959;DHT22;8078;47.822;9.402;2023-02-01T18:42:59;1.70;99.90
15959;DHT22;8078;47.822;9.402;2023-02-01T18:45:28;1.70;99.90
15959;DHT22;8078;47.822;9.402;2023-02-01T18:47:55;1.70;99.90
15959;DHT22;8078;47.822;9.402;2023-02-01T18:50:21;1.70;99.90
15959;DHT22;8078;47.822;9.402;2023-02-01T18:52:47;1.70;99.90